sensor_id;sensor_type;location;lat;lon;timestamp;pressure;altitude;pressure_sealevel;temperature;humidity
33422;BME280;19763;55.798;37.782;2022-09-01T00:01:22;98872.38;;;14.69;63.91
33422;BME280;19763;55.798;37.782;2022-09-01T00:03:55;98868.69;;;14.73;63.50
33422;BME280;19763;55.798;37.782;2022-09-01T00:06:24;98857.81;;;14.64;63.67
33422;BME280;19763;55.798;37.782;2022-09-01T00:08:52;98864.72;;;14.65;63.92
33422;BME280;19763;55.798;37.782;2022-09-01T00:11:19;98870.84;;;14.64;63.86
33422;BME280;19763;55.798;37.782;2022-09-01T00:13:45;98870.50;;;14.71;64.13
33422;BME280;19763;55.798;37.782;2022-09-01T00:16:11;98863.94;;;14.63;63.82
33422;BME280;19763;55.798;37.782;2022-09-01T00:18:41;98871.63;;;14.66;64.36
33422;BME280;19763;55.798;37.782;2022-09-01T00:21:10;98827.47;;;14.28;64.45
33422;BME280;19763;55.798;37.782;2022-09-01T00:23:36;98860.88;;;14.55;63.79
33422;BME280;19763;55.798;37.782;2022-09-01T00:26:02;98876.50;;;14.55;64.69
33422;BME280;19763;55.798;37.782;2022-09-01T00:28:28;98873.19;;;14.69;63.60
33422;BME280;19763;55.798;37.782;2022-09-01T00:30:53;98883.03;;;14.64;63.88
33422;BME280;19763;55.798;37.782;2022-09-01T00:33:19;98878.88;;;14.60;63.91
33422;BME280;19763;55.798;37.782;2022-09-01T00:35:45;98881.56;;;14.58;64.09
33422;BME280;19763;55.798;37.782;2022-09-01T00:38:10;98878.25;;;14.37;65.04
33422;BME280;19763;55.798;37.782;2022-09-01T00:40:37;98889.75;;;14.50;64.66
33422;BME280;19763;55.798;37.782;2022-09-01T00:43:36;98831.28;;;14.04;64.39
33422;BME280;19763;55.798;37.782;2022-09-01T00:46:04;98891.06;;;14.24;64.88
33422;BME280;19763;55.798;37.782;2022-09-01T00:48:30;98875.59;;;14.39;63.82
33422;BME280;19763;55.798;37.782;2022-09-01T00:50:57;98883.25;;;14.42;63.74
33422;BME280;19763;55.798;37.782;2022-09-01T00:53:23;98876.88;;;14.30;63.86
33422;BME280;19763;55.798;37.782;2022-09-01T00:55:49;98867.22;;;14.32;64.48
33422;BME280;19763;55.798;37.782;2022-09-01T00:58:15;98885.25;;;14.37;64.83
33422;BME280;19763;55.798;37.782;2022-09-01T01:00:41;98881.03;;;14.34;64.28
33422;BME280;19763;55.798;37.782;2022-09-01T01:03:09;98882.94;;;14.30;65.28
33422;BME280;19763;55.798;37.782;2022-09-01T01:05:38;98849.16;;;14.11;63.89
33422;BME280;19763;55.798;37.782;2022-09-01T01:08:07;98883.25;;;14.24;64.84
33422;BME280;19763;55.798;37.782;2022-09-01T01:10:37;98887.06;;;14.17;64.80
33422;BME280;19763;55.798;37.782;2022-09-01T01:13:09;98861.53;;;13.89;64.74
33422;BME280;19763;55.798;37.782;2022-09-01T01:15:37;98879.50;;;14.12;64.38
33422;BME280;19763;55.798;37.782;2022-09-01T01:18:16;98885.47;;;14.14;64.84
33422;BME280;19763;55.798;37.782;2022-09-01T01:20:42;98877.09;;;14.08;64.90
33422;BME280;19763;55.798;37.782;2022-09-01T01:23:34;98824.75;;;13.60;65.18
33422;BME280;19763;55.798;37.782;2022-09-01T01:26:03;98890.94;;;13.91;64.73
33422;BME280;19763;55.798;37.782;2022-09-01T01:28:32;98822.50;;;13.52;64.70
33422;BME280;19763;55.798;37.782;2022-09-01T01:31:12;98843.53;;;13.84;63.42
33422;BME280;19763;55.798;37.782;2022-09-01T01:36:12;98855.94;;;13.96;64.22
33422;BME280;19763;55.798;37.782;2022-09-01T01:38:39;98875.78;;;13.99;65.29
33422;BME280;19763;55.798;37.782;2022-09-01T01:41:08;98874.56;;;13.89;64.28
33422;BME280;19763;55.798;37.782;2022-09-01T01:43:34;98866.59;;;13.92;64.53
33422;BME280;19763;55.798;37.782;2022-09-01T01:46:05;98822.16;;;13.60;64.51
33422;BME280;19763;55.798;37.782;2022-09-01T01:48:33;98865.28;;;13.83;64.02
33422;BME280;19763;55.798;37.782;2022-09-01T01:51:02;98864.22;;;13.87;64.76
33422;BME280;19763;55.798;37.782;2022-09-01T01:53:29;98871.88;;;13.90;64.87
33422;BME280;19763;55.798;37.782;2022-09-01T01:55:55;98864.66;;;13.78;64.82
33422;BME280;19763;55.798;37.782;2022-09-01T01:58:23;98876.41;;;13.68;64.33
33422;BME280;19763;55.798;37.782;2022-09-01T02:00:51;98867.56;;;13.72;63.61
33422;BME280;19763;55.798;37.782;2022-09-01T02:03:19;98888.59;;;13.67;63.36
33422;BME280;19763;55.798;37.782;2022-09-01T02:05:51;98814.22;;;13.25;64.95
33422;BME280;19763;55.798;37.782;2022-09-01T02:08:19;98832.44;;;12.66;66.64
33422;BME280;19763;55.798;37.782;2022-09-01T02:10:48;98902.22;;;13.34;64.73
33422;BME280;19763;55.798;37.782;2022-09-01T02:13:17;98834.06;;;13.08;64.03
33422;BME280;19763;55.798;37.782;2022-09-01T02:15:49;98859.00;;;13.32;65.20
33422;BME280;19763;55.798;37.782;2022-09-01T02:18:26;98836.94;;;13.21;64.86
33422;BME280;19763;55.798;37.782;2022-09-01T02:20:53;98873.28;;;13.42;64.55
33422;BME280;19763;55.798;37.782;2022-09-01T02:23:21;98855.38;;;13.36;65.15
33422;BME280;19763;55.798;37.782;2022-09-01T02:25:55;98879.13;;;13.47;64.57
33422;BME280;19763;55.798;37.782;2022-09-01T02:28:23;98873.47;;;13.56;64.87
33422;BME280;19763;55.798;37.782;2022-09-01T02:30:51;98872.00;;;13.51;65.07
33422;BME280;19763;55.798;37.782;2022-09-01T02:33:21;98823.78;;;13.24;64.23
33422;BME280;19763;55.798;37.782;2022-09-01T02:35:49;98845.34;;;13.26;64.48
33422;BME280;19763;55.798;37.782;2022-09-01T02:38:16;98877.19;;;13.51;64.84
33422;BME280;19763;55.798;37.782;2022-09-01T02:40:46;98878.13;;;13.50;63.84
33422;BME280;19763;55.798;37.782;2022-09-01T02:43:15;98835.09;;;13.04;65.27
33422;BME280;19763;55.798;37.782;2022-09-01T02:45:49;98882.19;;;13.17;65.33
33422;BME280;19763;55.798;37.782;2022-09-01T02:48:24;98842.19;;;13.01;65.12
33422;BME280;19763;55.798;37.782;2022-09-01T02:50:51;98887.34;;;12.98;66.57
33422;BME280;19763;55.798;37.782;2022-09-01T02:53:17;98890.13;;;13.14;65.36
33422;BME280;19763;55.798;37.782;2022-09-01T02:55:44;98891.78;;;13.15;65.83
33422;BME280;19763;55.798;37.782;2022-09-01T02:58:10;98889.97;;;13.17;65.65
33422;BME280;19763;55.798;37.782;2022-09-01T03:00:45;98884.00;;;13.15;65.77
33422;BME280;19763;55.798;37.782;2022-09-01T03:03:11;98889.00;;;13.20;65.52
33422;BME280;19763;55.798;37.782;2022-09-01T03:05:43;98880.47;;;13.16;65.67
33422;BME280;19763;55.798;37.782;2022-09-01T03:08:10;98836.81;;;12.85;65.01
33422;BME280;19763;55.798;37.782;2022-09-01T03:10:41;98887.75;;;13.28;65.17
33422;BME280;19763;55.798;37.782;2022-09-01T03:13:26;98883.00;;;13.38;65.01
33422;BME280;19763;55.798;37.782;2022-09-01T03:15:53;98878.78;;;13.36;64.83
33422;BME280;19763;55.798;37.782;2022-09-01T03:18:19;98890.13;;;13.33;65.57
33422;BME280;19763;55.798;37.782;2022-09-01T03:20:46;98825.72;;;12.81;65.74
33422;BME280;19763;55.798;37.782;2022-09-01T03:23:15;98832.06;;;12.94;65.34
33422;BME280;19763;55.798;37.782;2022-09-01T03:25:44;98889.19;;;13.15;64.79
33422;BME280;19763;55.798;37.782;2022-09-01T03:28:14;98895.69;;;13.25;64.62
33422;BME280;19763;55.798;37.782;2022-09-01T03:30:46;98832.75;;;12.98;64.49
33422;BME280;19763;55.798;37.782;2022-09-01T03:33:13;98890.06;;;13.35;64.22
33422;BME280;19763;55.798;37.782;2022-09-01T03:35:40;98888.28;;;13.37;63.53
33422;BME280;19763;55.798;37.782;2022-09-01T03:38:06;98888.19;;;13.38;63.83
33422;BME280;19763;55.798;37.782;2022-09-01T03:40:34;98834.22;;;13.04;63.62
33422;BME280;19763;55.798;37.782;2022-09-01T03:43:02;98832.91;;;12.95;63.83
33422;BME280;19763;55.798;37.782;2022-09-01T03:45:29;98887.59;;;13.12;64.03
33422;BME280;19763;55.798;37.782;2022-09-01T03:48:00;98895.19;;;13.17;63.33
33422;BME280;19763;55.798;37.782;2022-09-01T03:50:28;98891.09;;;13.11;64.39
33422;BME280;19763;55.798;37.782;2022-09-01T03:52:57;98849.75;;;12.86;64.42
33422;BME280;19763;55.798;37.782;2022-09-01T03:55:29;98836.00;;;12.84;64.21
33422;BME280;19763;55.798;37.782;2022-09-01T03:58:01;98913.00;;;13.06;64.26
33422;BME280;19763;55.798;37.782;2022-09-01T04:00:33;98903.75;;;13.19;63.61
33422;BME280;19763;55.798;37.782;2022-09-01T04:03:01;98883.72;;;13.21;64.40
33422;BME280;19763;55.798;37.782;2022-09-01T04:05:28;98829.97;;;13.03;64.01
33422;BME280;19763;55.798;37.782;2022-09-01T04:07:57;98833.19;;;13.08;64.07
33422;BME280;19763;55.798;37.782;2022-09-01T04:10:23;98898.72;;;13.35;64.11
33422;BME280;19763;55.798;37.782;2022-09-01T04:12:49;98884.34;;;13.26;64.22
33422;BME280;19763;55.798;37.782;2022-09-01T04:15:17;98886.03;;;13.27;63.54
33422;BME280;19763;55.798;37.782;2022-09-01T04:17:43;98890.13;;;13.14;63.76
33422;BME280;19763;55.798;37.782;2022-09-01T04:20:27;98879.16;;;13.26;64.03
33422;BME280;19763;55.798;37.782;2022-09-01T04:22:53;98877.53;;;13.24;64.14
33422;BME280;19763;55.798;37.782;2022-09-01T04:25:20;98884.81;;;13.36;63.48
33422;BME280;19763;55.798;37.782;2022-09-01T04:27:51;98862.06;;;13.21;63.83
33422;BME280;19763;55.798;37.782;2022-09-01T04:30:20;98883.38;;;13.10;64.12
33422;BME280;19763;55.798;37.782;2022-09-01T04:32:50;98885.66;;;12.97;63.40
33422;BME280;19763;55.798;37.782;2022-09-01T04:35:16;98899.19;;;13.24;62.49
33422;BME280;19763;55.798;37.782;2022-09-01T04:37:43;98894.81;;;13.25;62.93
33422;BME280;19763;55.798;37.782;2022-09-01T04:40:10;98894.03;;;13.04;62.80
33422;BME280;19763;55.798;37.782;2022-09-01T04:42:39;98910.41;;;13.06;61.97
33422;BME280;19763;55.798;37.782;2022-09-01T04:45:06;98896.53;;;13.05;60.21
33422;BME280;19763;55.798;37.782;2022-09-01T04:47:35;98890.22;;;13.11;60.55
33422;BME280;19763;55.798;37.782;2022-09-01T04:50:07;98900.53;;;13.14;59.29
33422;BME280;19763;55.798;37.782;2022-09-01T04:52:40;98901.13;;;13.19;58.69
33422;BME280;19763;55.798;37.782;2022-09-01T04:55:08;98893.91;;;13.07;59.04
33422;BME280;19763;55.798;37.782;2022-09-01T04:57:46;98899.78;;;12.91;58.58
33422;BME280;19763;55.798;37.782;2022-09-01T05:00:17;98856.78;;;12.64;59.33
33422;BME280;19763;55.798;37.782;2022-09-01T05:02:54;98847.44;;;12.59;58.89
33422;BME280;19763;55.798;37.782;2022-09-01T05:05:22;98904.91;;;12.93;59.14
33422;BME280;19763;55.798;37.782;2022-09-01T05:07:48;98896.28;;;12.72;60.71
33422;BME280;19763;55.798;37.782;2022-09-01T05:10:21;98904.91;;;12.72;61.02
33422;BME280;19763;55.798;37.782;2022-09-01T05:12:48;98911.22;;;12.67;60.89
33422;BME280;19763;55.798;37.782;2022-09-01T05:15:14;98905.06;;;12.69;61.10
33422;BME280;19763;55.798;37.782;2022-09-01T05:17:42;98914.06;;;12.81;59.42
33422;BME280;19763;55.798;37.782;2022-09-01T05:20:09;98897.84;;;12.76;58.09
33422;BME280;19763;55.798;37.782;2022-09-01T05:22:36;98907.09;;;13.02;57.38
33422;BME280;19763;55.798;37.782;2022-09-01T05:25:06;98907.44;;;12.94;56.59
33422;BME280;19763;55.798;37.782;2022-09-01T05:27:42;98905.72;;;13.14;57.68
33422;BME280;19763;55.798;37.782;2022-09-01T05:30:15;98859.44;;;12.83;56.75
33422;BME280;19763;55.798;37.782;2022-09-01T05:32:43;98903.88;;;13.16;57.14
33422;BME280;19763;55.798;37.782;2022-09-01T05:35:13;98906.84;;;13.27;56.95
33422;BME280;19763;55.798;37.782;2022-09-01T05:37:39;98902.19;;;13.15;56.72
33422;BME280;19763;55.798;37.782;2022-09-01T05:40:07;98903.91;;;13.35;57.13
33422;BME280;19763;55.798;37.782;2022-09-01T05:42:42;98904.31;;;13.26;55.96
33422;BME280;19763;55.798;37.782;2022-09-01T05:45:08;98907.59;;;13.29;56.62
33422;BME280;19763;55.798;37.782;2022-09-01T05:47:37;98911.59;;;13.38;55.65
33422;BME280;19763;55.798;37.782;2022-09-01T05:50:04;98918.22;;;13.25;56.26
33422;BME280;19763;55.798;37.782;2022-09-01T05:52:36;98850.78;;;12.82;55.85
33422;BME280;19763;55.798;37.782;2022-09-01T05:55:02;98902.28;;;13.33;56.17
33422;BME280;19763;55.798;37.782;2022-09-01T05:57:29;98906.84;;;13.27;56.06
33422;BME280;19763;55.798;37.782;2022-09-01T05:59:59;98912.88;;;13.28;55.81
33422;BME280;19763;55.798;37.782;2022-09-01T06:02:26;98910.81;;;13.36;55.05
33422;BME280;19763;55.798;37.782;2022-09-01T06:04:53;98914.00;;;13.43;55.79
33422;BME280;19763;55.798;37.782;2022-09-01T06:07:21;98907.69;;;13.28;55.47
33422;BME280;19763;55.798;37.782;2022-09-01T06:09:48;98895.13;;;13.38;55.18
33422;BME280;19763;55.798;37.782;2022-09-01T06:12:15;98905.28;;;13.44;55.47
33422;BME280;19763;55.798;37.782;2022-09-01T06:14:50;98857.91;;;12.98;55.06
33422;BME280;19763;55.798;37.782;2022-09-01T06:17:18;98907.88;;;13.44;55.54
33422;BME280;19763;55.798;37.782;2022-09-01T06:19:47;98911.47;;;13.41;54.85
33422;BME280;19763;55.798;37.782;2022-09-01T06:22:13;98905.28;;;13.44;55.73
33422;BME280;19763;55.798;37.782;2022-09-01T06:24:39;98911.16;;;13.48;55.74
33422;BME280;19763;55.798;37.782;2022-09-01T06:27:08;98893.22;;;13.60;55.19
33422;BME280;19763;55.798;37.782;2022-09-01T06:29:36;98904.63;;;13.58;55.46
33422;BME280;19763;55.798;37.782;2022-09-01T06:32:08;98909.06;;;13.56;55.03
33422;BME280;19763;55.798;37.782;2022-09-01T06:34:41;98913.47;;;13.73;54.40
33422;BME280;19763;55.798;37.782;2022-09-01T06:37:08;98907.72;;;13.66;54.45
33422;BME280;19763;55.798;37.782;2022-09-01T06:39:34;98894.63;;;13.68;53.98
33422;BME280;19763;55.798;37.782;2022-09-01T06:41:59;98901.16;;;13.76;53.17
33422;BME280;19763;55.798;37.782;2022-09-01T06:44:27;98909.75;;;13.78;53.56
33422;BME280;19763;55.798;37.782;2022-09-01T06:46:56;98909.53;;;13.83;53.93
33422;BME280;19763;55.798;37.782;2022-09-01T06:49:22;98907.06;;;13.61;54.54
33422;BME280;19763;55.798;37.782;2022-09-01T06:52:01;98883.47;;;13.46;54.23
33422;BME280;19763;55.798;37.782;2022-09-01T06:54:28;98906.81;;;13.67;55.26
33422;BME280;19763;55.798;37.782;2022-09-01T06:56:55;98908.63;;;13.65;55.39
33422;BME280;19763;55.798;37.782;2022-09-01T06:59:21;98915.59;;;13.64;55.29
33422;BME280;19763;55.798;37.782;2022-09-01T07:01:48;98905.47;;;13.58;54.49
33422;BME280;19763;55.798;37.782;2022-09-01T07:04:16;98916.22;;;13.51;54.59
33422;BME280;19763;55.798;37.782;2022-09-01T07:06:44;98912.78;;;13.50;56.19
33422;BME280;19763;55.798;37.782;2022-09-01T07:09:17;98922.78;;;13.40;55.82
33422;BME280;19763;55.798;37.782;2022-09-01T07:11:43;98913.84;;;13.46;55.85
33422;BME280;19763;55.798;37.782;2022-09-01T07:14:09;98916.44;;;13.46;55.55
33422;BME280;19763;55.798;37.782;2022-09-01T07:16:36;98923.63;;;13.60;55.62
33422;BME280;19763;55.798;37.782;2022-09-01T07:19:06;98929.31;;;13.68;55.33
33422;BME280;19763;55.798;37.782;2022-09-01T07:21:37;98930.63;;;13.58;56.64
33422;BME280;19763;55.798;37.782;2022-09-01T07:24:03;98926.72;;;13.68;55.69
33422;BME280;19763;55.798;37.782;2022-09-01T07:26:31;98935.50;;;13.66;55.78
33422;BME280;19763;55.798;37.782;2022-09-01T07:29:01;98939.91;;;13.63;55.67
33422;BME280;19763;55.798;37.782;2022-09-01T07:31:30;98886.47;;;13.18;56.07
33422;BME280;19763;55.798;37.782;2022-09-01T07:33:59;98893.84;;;13.27;56.22
33422;BME280;19763;55.798;37.782;2022-09-01T07:36:26;98938.50;;;13.56;55.83
33422;BME280;19763;55.798;37.782;2022-09-01T07:38:52;98936.69;;;13.58;55.57
33422;BME280;19763;55.798;37.782;2022-09-01T07:41:23;98889.19;;;13.36;56.24
33422;BME280;19763;55.798;37.782;2022-09-01T07:43:50;98930.91;;;13.71;55.79
33422;BME280;19763;55.798;37.782;2022-09-01T07:46:20;98927.09;;;13.78;55.38
33422;BME280;19763;55.798;37.782;2022-09-01T07:48:47;98928.38;;;13.69;55.91
33422;BME280;19763;55.798;37.782;2022-09-01T07:51:17;98878.56;;;13.40;55.79
33422;BME280;19763;55.798;37.782;2022-09-01T07:53:45;98935.56;;;13.64;56.44
33422;BME280;19763;55.798;37.782;2022-09-01T07:56:13;98943.78;;;13.55;57.43
33422;BME280;19763;55.798;37.782;2022-09-01T07:58:40;98931.81;;;13.32;57.49
33422;BME280;19763;55.798;37.782;2022-09-01T08:01:12;98880.97;;;13.24;56.85
33422;BME280;19763;55.798;37.782;2022-09-01T08:03:41;98933.38;;;13.55;56.92
33422;BME280;19763;55.798;37.782;2022-09-01T08:06:10;98927.81;;;13.43;58.31
33422;BME280;19763;55.798;37.782;2022-09-01T08:08:37;98928.09;;;13.56;57.50
33422;BME280;19763;55.798;37.782;2022-09-01T08:11:04;98945.28;;;13.60;57.19
33422;BME280;19763;55.798;37.782;2022-09-01T08:13:32;98931.63;;;13.74;57.08
33422;BME280;19763;55.798;37.782;2022-09-01T08:15:57;98935.56;;;13.83;57.08
33422;BME280;19763;55.798;37.782;2022-09-01T08:18:23;98931.91;;;13.68;56.85
33422;BME280;19763;55.798;37.782;2022-09-01T08:20:49;98932.19;;;13.62;57.78
33422;BME280;19763;55.798;37.782;2022-09-01T08:23:17;98943.31;;;13.66;56.57
33422;BME280;19763;55.798;37.782;2022-09-01T08:25:44;98936.56;;;13.61;57.59
33422;BME280;19763;55.798;37.782;2022-09-01T08:28:12;98940.06;;;13.60;55.87
33422;BME280;19763;55.798;37.782;2022-09-01T08:30:40;98933.31;;;13.75;56.27
33422;BME280;19763;55.798;37.782;2022-09-01T08:33:06;98929.59;;;13.81;55.10
33422;BME280;19763;55.798;37.782;2022-09-01T08:35:44;98888.75;;;13.45;55.17
33422;BME280;19763;55.798;37.782;2022-09-01T08:38:11;98938.66;;;13.72;55.59
33422;BME280;19763;55.798;37.782;2022-09-01T08:40:37;98938.78;;;13.69;55.71
33422;BME280;19763;55.798;37.782;2022-09-01T08:43:18;98938.78;;;13.69;55.54
33422;BME280;19763;55.798;37.782;2022-09-01T08:45:57;98889.44;;;13.49;55.38
33422;BME280;19763;55.798;37.782;2022-09-01T08:48:27;98949.63;;;13.79;54.81
33422;BME280;19763;55.798;37.782;2022-09-01T08:51:24;98947.72;;;13.83;56.10
33422;BME280;19763;55.798;37.782;2022-09-01T08:54:12;98959.97;;;13.80;56.38
33422;BME280;19763;55.798;37.782;2022-09-01T08:56:40;98954.56;;;13.66;56.51
33422;BME280;19763;55.798;37.782;2022-09-01T08:59:07;98966.09;;;13.60;55.68
33422;BME280;19763;55.798;37.782;2022-09-01T09:10:05;98946.44;;;13.72;53.50
33422;BME280;19763;55.798;37.782;2022-09-01T09:15:39;98956.81;;;14.10;53.03
33422;BME280;19763;55.798;37.782;2022-09-01T09:20:44;98968.75;;;13.97;52.11
33422;BME280;19763;55.798;37.782;2022-09-01T09:23:18;98975.03;;;13.74;53.24
33422;BME280;19763;55.798;37.782;2022-09-01T09:25:46;98953.28;;;13.75;53.37
33422;BME280;19763;55.798;37.782;2022-09-01T09:28:11;98963.69;;;13.94;54.00
33422;BME280;19763;55.798;37.782;2022-09-01T09:30:37;98965.28;;;13.96;52.69
33422;BME280;19763;55.798;37.782;2022-09-01T09:33:06;98963.25;;;14.03;53.06
33422;BME280;19763;55.798;37.782;2022-09-01T09:35:42;98979.84;;;14.01;53.41
33422;BME280;19763;55.798;37.782;2022-09-01T09:41:04;98919.94;;;13.83;51.83
33422;BME280;19763;55.798;37.782;2022-09-01T09:43:44;98938.91;;;13.85;52.55
33422;BME280;19763;55.798;37.782;2022-09-01T09:46:24;98970.06;;;14.06;51.71
33422;BME280;19763;55.798;37.782;2022-09-01T09:49:09;98986.69;;;14.03;51.65
33422;BME280;19763;55.798;37.782;2022-09-01T09:51:37;98934.31;;;13.73;51.40
33422;BME280;19763;55.798;37.782;2022-09-01T09:56:38;98983.75;;;14.28;51.65
33422;BME280;19763;55.798;37.782;2022-09-01T09:59:30;98933.44;;;13.72;50.42
33422;BME280;19763;55.798;37.782;2022-09-01T10:02:20;98937.09;;;13.87;50.91
33422;BME280;19763;55.798;37.782;2022-09-01T10:04:48;98968.78;;;14.14;50.05
33422;BME280;19763;55.798;37.782;2022-09-01T10:07:36;98986.22;;;14.31;50.15
33422;BME280;19763;55.798;37.782;2022-09-01T10:10:07;98941.59;;;14.03;51.02
33422;BME280;19763;55.798;37.782;2022-09-01T10:12:52;98994.09;;;14.30;50.47
33422;BME280;19763;55.798;37.782;2022-09-01T10:15:20;98955.59;;;14.00;50.30
33422;BME280;19763;55.798;37.782;2022-09-01T10:17:47;99006.44;;;14.07;50.84
33422;BME280;19763;55.798;37.782;2022-09-01T10:20:25;98957.78;;;13.90;51.18
33422;BME280;19763;55.798;37.782;2022-09-01T10:22:51;99004.19;;;14.19;51.12
33422;BME280;19763;55.798;37.782;2022-09-01T10:25:28;99013.63;;;14.21;50.85
33422;BME280;19763;55.798;37.782;2022-09-01T10:28:06;99020.66;;;14.19;50.56
33422;BME280;19763;55.798;37.782;2022-09-01T10:30:36;98964.59;;;13.93;51.17
33422;BME280;19763;55.798;37.782;2022-09-01T10:33:07;99010.38;;;14.16;50.42
33422;BME280;19763;55.798;37.782;2022-09-01T10:35:36;98940.75;;;13.83;49.25
33422;BME280;19763;55.798;37.782;2022-09-01T10:38:06;99007.00;;;14.14;49.53
33422;BME280;19763;55.798;37.782;2022-09-01T10:40:38;98958.88;;;14.04;49.57
33422;BME280;19763;55.798;37.782;2022-09-01T10:43:28;98942.25;;;14.06;50.08
33422;BME280;19763;55.798;37.782;2022-09-01T10:45:58;99007.00;;;14.50;49.80
33422;BME280;19763;55.798;37.782;2022-09-01T10:48:31;98994.72;;;14.35;51.04
33422;BME280;19763;55.798;37.782;2022-09-01T10:53:53;98962.81;;;14.12;50.65
33422;BME280;19763;55.798;37.782;2022-09-01T10:56:27;99010.88;;;14.42;50.30
33422;BME280;19763;55.798;37.782;2022-09-01T10:59:24;99004.38;;;14.33;50.28
33422;BME280;19763;55.798;37.782;2022-09-01T11:15:42;99014.19;;;14.64;49.89
33422;BME280;19763;55.798;37.782;2022-09-01T11:18:13;98996.13;;;14.60;49.58
33422;BME280;19763;55.798;37.782;2022-09-01T11:20:40;99013.88;;;14.71;49.78
33422;BME280;19763;55.798;37.782;2022-09-01T11:25:53;99018.31;;;14.69;50.33
33422;BME280;19763;55.798;37.782;2022-09-01T11:36:19;98996.97;;;14.43;49.56
33422;BME280;19763;55.798;37.782;2022-09-01T11:39:10;99010.94;;;14.59;50.20
33422;BME280;19763;55.798;37.782;2022-09-01T11:49:59;98998.41;;;14.85;49.09
33422;BME280;19763;55.798;37.782;2022-09-01T11:52:28;98996.16;;;14.95;48.40
33422;BME280;19763;55.798;37.782;2022-09-01T11:54:54;98996.09;;;14.96;48.22
33422;BME280;19763;55.798;37.782;2022-09-01T11:57:36;98938.44;;;14.67;47.70
33422;BME280;19763;55.798;37.782;2022-09-01T12:00:12;98938.72;;;14.61;48.56
33422;BME280;19763;55.798;37.782;2022-09-01T12:02:47;98983.97;;;14.95;48.28
33422;BME280;19763;55.798;37.782;2022-09-01T12:07:50;98981.66;;;15.07;47.81
33422;BME280;19763;55.798;37.782;2022-09-01T12:10:36;98938.69;;;14.63;47.87
33422;BME280;19763;55.798;37.782;2022-09-01T12:15:33;98991.25;;;15.06;47.69
33422;BME280;19763;55.798;37.782;2022-09-01T12:18:21;98971.59;;;14.99;48.04
33422;BME280;19763;55.798;37.782;2022-09-01T12:20:49;98976.22;;;15.11;48.23
33422;BME280;19763;55.798;37.782;2022-09-01T12:23:27;98950.09;;;14.78;48.10
33422;BME280;19763;55.798;37.782;2022-09-01T12:25:56;98978.13;;;14.90;47.68
33422;BME280;19763;55.798;37.782;2022-09-01T12:28:23;98974.91;;;15.02;48.05
33422;BME280;19763;55.798;37.782;2022-09-01T12:30:51;98975.22;;;15.14;47.89
33422;BME280;19763;55.798;37.782;2022-09-01T12:33:18;98981.50;;;15.10;48.49
33422;BME280;19763;55.798;37.782;2022-09-01T12:35:45;98977.81;;;15.14;48.05
33422;BME280;19763;55.798;37.782;2022-09-01T12:38:24;98979.19;;;15.21;46.95
33422;BME280;19763;55.798;37.782;2022-09-01T12:40:54;98961.91;;;15.18;46.62
33422;BME280;19763;55.798;37.782;2022-09-01T12:43:46;98985.16;;;15.23;46.43
33422;BME280;19763;55.798;37.782;2022-09-01T12:46:40;98982.38;;;15.26;46.48
33422;BME280;19763;55.798;37.782;2022-09-01T12:49:23;98976.25;;;15.27;45.78
33422;BME280;19763;55.798;37.782;2022-09-01T12:52:25;98922.47;;;14.91;44.60
33422;BME280;19763;55.798;37.782;2022-09-01T12:54:53;98979.03;;;15.24;45.57
33422;BME280;19763;55.798;37.782;2022-09-01T12:57:36;98978.69;;;15.30;45.51
33422;BME280;19763;55.798;37.782;2022-09-01T13:00:12;98980.38;;;15.31;45.13
33422;BME280;19763;55.798;37.782;2022-09-01T13:02:43;98984.31;;;15.23;45.46
33422;BME280;19763;55.798;37.782;2022-09-01T13:05:36;98983.50;;;15.05;45.82
33422;BME280;19763;55.798;37.782;2022-09-01T13:10:35;98930.84;;;14.80;45.50
33422;BME280;19763;55.798;37.782;2022-09-01T13:13:03;98961.56;;;15.09;45.33
33422;BME280;19763;55.798;37.782;2022-09-01T13:15:30;98959.81;;;15.09;45.61
33422;BME280;19763;55.798;37.782;2022-09-01T13:17:56;98962.34;;;15.11;45.32
33422;BME280;19763;55.798;37.782;2022-09-01T13:20:22;98957.53;;;15.19;45.47
33422;BME280;19763;55.798;37.782;2022-09-01T13:22:48;98964.44;;;15.20;44.87
33422;BME280;19763;55.798;37.782;2022-09-01T13:25:16;98961.50;;;15.26;44.91
33422;BME280;19763;55.798;37.782;2022-09-01T13:27:43;98962.28;;;15.28;44.95
33422;BME280;19763;55.798;37.782;2022-09-01T13:30:19;98953.38;;;15.32;44.80
33422;BME280;19763;55.798;37.782;2022-09-01T13:32:47;98950.84;;;15.31;44.50
33422;BME280;19763;55.798;37.782;2022-09-01T13:35:14;98954.78;;;15.22;43.84
33422;BME280;19763;55.798;37.782;2022-09-01T13:37:41;98957.06;;;15.28;44.44
33422;BME280;19763;55.798;37.782;2022-09-01T13:40:08;98949.44;;;15.41;44.72
33422;BME280;19763;55.798;37.782;2022-09-01T13:42:42;98953.41;;;15.48;44.58
33422;BME280;19763;55.798;37.782;2022-09-01T13:45:09;98950.97;;;15.45;43.96
33422;BME280;19763;55.798;37.782;2022-09-01T13:47:40;98949.34;;;15.43;44.13
33422;BME280;19763;55.798;37.782;2022-09-01T13:50:08;98944.31;;;15.40;44.60
33422;BME280;19763;55.798;37.782;2022-09-01T13:52:36;98945.91;;;15.42;44.23
33422;BME280;19763;55.798;37.782;2022-09-01T13:55:03;98948.75;;;15.38;45.09
33422;BME280;19763;55.798;37.782;2022-09-01T13:57:29;98937.47;;;15.37;44.23
33422;BME280;19763;55.798;37.782;2022-09-01T13:59:55;98941.84;;;15.36;44.79
33422;BME280;19763;55.798;37.782;2022-09-01T14:02:20;98943.22;;;15.44;44.96
33422;BME280;19763;55.798;37.782;2022-09-01T14:04:46;98946.56;;;15.46;44.36
33422;BME280;19763;55.798;37.782;2022-09-01T14:07:12;98950.78;;;15.48;45.12
33422;BME280;19763;55.798;37.782;2022-09-01T14:09:37;98955.91;;;15.50;44.56
33422;BME280;19763;55.798;37.782;2022-09-01T14:12:03;98944.66;;;15.49;44.72